Time;durP1;ratioP1;P1;durP2;ratioP2;P2;SDS_P1;SDS_P2;PMS_P1;PMS_P2;Temp;Humidity;BMP_temperature;BMP_pressure;BME280_temperature;BME280_humidity;BME280_pressure;Samples;Min_cycle;Max_cycle;Signal;HPM_P1;HPM_P2
2022/12/05 00:01:11;;;;;;;17.40;13.23;;;7.30;50.00;;;;;;10423123;28;20721;-68
2022/12/05 00:06:16;;;;;;;17.27;13.40;;;7.30;49.80;;;;;;10420137;28;20696;-69
2022/12/05 00:11:21;;;;;;;15.90;11.93;;;7.40;49.70;;;;;;10424082;28;20237;-68
2022/12/05 00:16:29;;;;;;;16.30;12.50;;;7.50;49.40;;;;;;10425913;28;20236;-69
2022/12/05 00:21:35;;;;;;;15.77;12.30;;;7.40;49.10;;;;;;10414612;28;20789;-69
2022/12/05 00:26:38;;;;;;;14.97;11.00;;;7.50;49.20;;;;;;10414867;28;20240;-69
2022/12/05 00:31:43;;;;;;;17.07;12.43;;;7.50;49.20;;;;;;10419980;28;20698;-69
2022/12/05 00:36:46;;;;;;;14.47;11.50;;;7.50;49.20;;;;;;10418720;28;20320;-69
2022/12/05 00:41:49;;;;;;;16.50;12.37;;;7.50;49.10;;;;;;10416510;28;20245;-69
2022/12/05 00:46:54;;;;;;;16.13;12.17;;;7.60;49.10;;;;;;10417477;28;21036;-69
2022/12/05 00:51:57;;;;;;;15.60;12.17;;;7.60;49.00;;;;;;10417790;28;20237;-69
2022/12/05 00:57:01;;;;;;;16.77;12.50;;;7.50;48.60;;;;;;10418712;28;20236;-69
2022/12/05 01:02:05;;;;;;;14.23;11.83;;;7.40;48.80;;;;;;10415892;28;20225;-69
2022/12/05 01:07:09;;;;;;;14.20;11.60;;;7.30;49.00;;;;;;10416551;28;20232;-69
2022/12/05 01:12:13;;;;;;;13.93;11.50;;;7.20;48.90;;;;;;10415642;28;20237;-69
2022/12/05 01:17:17;;;;;;;13.00;11.47;;;7.10;49.10;;;;;;10414158;28;20234;-69
2022/12/05 01:22:20;;;;;;;13.20;10.63;;;7.00;49.30;;;;;;10416405;28;20237;-68
2022/12/05 01:27:24;;;;;;;14.17;11.30;;;7.00;49.70;;;;;;10413038;28;20228;-69
2022/12/05 01:32:28;;;;;;;14.17;11.00;;;6.90;49.70;;;;;;10415019;28;20229;-68
2022/12/05 01:37:31;;;;;;;11.07;9.90;;;7.00;49.70;;;;;;10414268;28;20240;-68
2022/12/05 01:42:34;;;;;;;12.87;10.43;;;7.00;49.70;;;;;;10420795;28;20752;-68
2022/12/05 01:47:39;;;;;;;11.30;9.87;;;7.00;49.60;;;;;;10415972;28;20230;-69
2022/12/05 01:52:42;;;;;;;12.77;11.03;;;7.00;49.60;;;;;;10415998;28;20221;-69
2022/12/05 01:57:46;;;;;;;10.87;9.50;;;7.00;49.20;;;;;;10416704;28;20232;-68
2022/12/05 02:02:56;;;;;;;11.10;9.90;;;7.00;49.20;;;;;;10417147;28;20893;-68
2022/12/05 02:08:02;;;;;;;11.87;9.87;;;6.90;49.40;;;;;;10415800;28;20637;-68
2022/12/05 02:13:16;;;;;;;10.30;9.20;;;6.90;49.40;;;;;;10416791;28;20228;-69
2022/12/05 02:18:34;;;;;;;9.93;8.93;;;6.90;49.50;;;;;;10414353;28;20233;-69
2022/12/05 02:24:01;;;;;;;9.80;8.60;;;6.90;49.50;;;;;;10421751;28;20229;-68
2022/12/05 02:29:28;;;;;;;9.80;6.97;;;6.80;49.50;;;;;;10410715;28;20226;-68
2022/12/05 02:34:38;;;;;;;8.40;7.37;;;6.80;50.00;;;;;;10412708;28;20236;-66
2022/12/05 02:39:48;;;;;;;8.37;7.53;;;6.90;49.30;;;;;;10418746;28;20229;-68
2022/12/05 02:44:57;;;;;;;8.97;8.07;;;6.80;49.00;;;;;;10418350;28;20740;-69
2022/12/05 02:50:01;;;;;;;9.03;8.07;;;6.80;49.30;;;;;;10413650;28;20772;-69
2022/12/05 02:55:07;;;;;;;9.23;8.27;;;6.80;49.10;;;;;;10414487;28;20240;-69
2022/12/05 03:00:11;;;;;;;8.13;7.30;;;6.80;48.90;;;;;;10414614;28;20248;-69
2022/12/05 03:05:23;;;;;;;8.90;8.00;;;6.80;48.80;;;;;;10417835;28;20269;-69
2022/12/05 03:10:29;;;;;;;8.97;8.07;;;6.80;48.60;;;;;;10414795;28;20237;-68
2022/12/05 03:15:36;;;;;;;9.67;8.23;;;6.70;48.90;;;;;;10415996;28;20229;-75
2022/12/05 03:20:46;;;;;;;9.50;7.83;;;6.70;48.80;;;;;;10423770;28;20237;-74
2022/12/05 03:25:55;;;;;;;10.60;8.80;;;6.70;48.60;;;;;;10423197;28;20229;-74
2022/12/05 03:31:06;;;;;;;9.77;8.17;;;6.60;48.80;;;;;;10424765;28;20240;-75
2022/12/05 03:36:15;;;;;;;10.57;8.80;;;6.60;48.90;;;;;;10420964;28;20239;-74
2022/12/05 03:41:25;;;;;;;10.47;8.87;;;6.60;48.90;;;;;;10422189;28;20290;-74
2022/12/05 03:46:32;;;;;;;11.43;9.50;;;6.60;48.80;;;;;;10420359;28;20241;-75
2022/12/05 03:51:41;;;;;;;12.13;9.70;;;6.60;48.80;;;;;;10428472;28;20233;-74
2022/12/05 03:56:48;;;;;;;10.83;9.27;;;6.50;48.70;;;;;;10423102;28;20279;-74
2022/12/05 04:01:54;;;;;;;12.80;10.33;;;6.40;48.80;;;;;;10423118;28;20240;-75
2022/12/05 04:07:04;;;;;;;14.63;10.80;;;6.40;49.00;;;;;;10425267;28;20565;-75
2022/12/05 04:12:11;;;;;;;13.83;10.13;;;6.40;49.20;;;;;;10424701;28;20234;-74
2022/12/05 04:17:22;;;;;;;13.00;10.73;;;6.40;49.00;;;;;;10420245;28;20244;-74
2022/12/05 04:22:28;;;;;;;10.73;8.77;;;6.40;49.30;;;;;;10425843;28;20236;-74
2022/12/05 04:27:39;;;;;;;10.73;8.17;;;6.40;48.90;;;;;;10419301;28;20228;-68
2022/12/05 04:32:46;;;;;;;9.60;8.20;;;6.30;48.70;;;;;;10417191;28;20276;-68
2022/12/05 04:37:55;;;;;;;12.77;10.00;;;6.30;49.00;;;;;;10414837;28;20295;-68
2022/12/05 04:43:00;;;;;;;10.60;8.97;;;6.30;49.00;;;;;;10423375;28;20221;-69
2022/12/05 04:48:09;;;;;;;10.93;9.80;;;6.20;48.60;;;;;;10423142;28;20304;-74
2022/12/05 04:53:15;;;;;;;11.73;9.60;;;6.20;48.80;;;;;;10422025;28;20240;-69
2022/12/05 04:58:21;;;;;;;11.13;9.60;;;6.10;48.80;;;;;;10423219;28;20237;-69
2022/12/05 05:03:29;;;;;;;11.07;8.73;;;6.10;49.20;;;;;;10420185;28;20245;-69
2022/12/05 05:08:34;;;;;;;12.13;9.10;;;6.10;49.10;;;;;;10418591;28;20280;-69
2022/12/05 05:13:37;;;;;;;12.53;10.20;;;6.10;49.00;;;;;;10422995;28;20296;-74
2022/12/05 05:18:40;;;;;;;12.27;10.00;;;6.10;49.00;;;;;;10416257;28;21408;-74
2022/12/05 05:23:45;;;;;;;10.60;9.20;;;6.20;48.80;;;;;;10426464;28;20221;-74
2022/12/05 05:28:49;;;;;;;13.17;11.43;;;6.20;48.80;;;;;;10421545;28;20245;-73
2022/12/05 05:33:53;;;;;;;13.57;11.90;;;6.30;48.80;;;;;;10419829;28;20225;-69
2022/12/05 05:39:00;;;;;;;10.83;9.63;;;6.20;48.30;;;;;;10415811;28;20233;-68
2022/12/05 05:44:04;;;;;;;15.60;13.13;;;6.20;48.50;;;;;;10415740;28;20233;-66
2022/12/05 05:49:07;;;;;;;13.20;10.27;;;6.20;48.60;;;;;;10422776;28;20733;-67
2022/12/05 05:54:11;;;;;;;12.30;10.17;;;6.10;48.60;;;;;;10414538;28;20602;-69
2022/12/05 05:59:15;;;;;;;12.60;10.53;;;6.10;49.00;;;;;;10420468;28;20245;-67
2022/12/05 06:04:18;;;;;;;11.37;9.70;;;6.20;49.10;;;;;;10419218;28;20268;-66
2022/12/05 06:09:22;;;;;;;10.53;9.43;;;6.30;49.10;;;;;;10417403;28;20319;-67
2022/12/05 06:14:25;;;;;;;12.07;10.43;;;6.30;49.00;;;;;;10419824;28;20241;-66
2022/12/05 06:19:28;;;;;;;10.70;9.40;;;6.30;48.80;;;;;;10415556;28;20233;-68
2022/12/05 06:24:33;;;;;;;10.57;9.47;;;6.40;49.10;;;;;;10412797;28;20236;-69
2022/12/05 06:29:36;;;;;;;11.73;9.57;;;6.50;49.80;;;;;;10411714;28;20229;-74
2022/12/05 06:34:39;;;;;;;10.13;9.03;;;6.50;49.00;;;;;;10423941;28;20236;-74
2022/12/05 06:39:44;;;;;;;11.07;9.63;;;6.60;48.80;;;;;;10421539;28;20232;-75
2022/12/05 06:44:47;;;;;;;12.33;9.87;;;6.60;48.40;;;;;;10417320;28;20229;-69
2022/12/05 06:49:50;;;;;;;12.67;9.60;;;6.60;48.40;;;;;;10425468;28;20655;-69
2022/12/05 06:54:54;;;;;;;10.27;9.17;;;6.60;48.30;;;;;;10422115;28;20315;-69
2022/12/05 07:01:37;;;;;;;12.17;9.90;;;6.50;48.30;;;;;;10424715;28;20233;-69
2022/12/05 07:05:24;;;;;;;10.20;9.17;;;6.50;48.40;;;;;;10425600;28;20240;-69
2022/12/05 07:10:28;;;;;;;11.43;9.67;;;6.50;48.50;;;;;;10421894;28;20230;-66
2022/12/05 07:15:31;;;;;;;11.13;9.93;;;6.50;48.50;;;;;;10424422;28;20232;-74
2022/12/05 07:20:35;;;;;;;11.03;9.13;;;6.60;48.50;;;;;;10425539;28;20237;-69
2022/12/05 07:25:59;;;;;;;14.27;11.03;;;6.60;48.60;;;;;;10416649;28;20688;-69
2022/12/05 07:31:05;;;;;;;14.27;10.80;;;6.50;48.50;;;;;;10419902;28;20709;-69
2022/12/05 07:36:10;;;;;;;12.60;10.73;;;6.50;48.60;;;;;;10423363;28;20230;-69
2022/12/05 07:41:21;;;;;;;12.80;10.93;;;6.50;48.80;;;;;;10422395;28;20230;-70
2022/12/05 07:46:26;;;;;;;13.53;10.63;;;6.50;48.80;;;;;;10421714;28;20229;-68
2022/12/05 07:51:29;;;;;;;13.80;10.33;;;6.50;48.80;;;;;;10417880;28;20287;-66
2022/12/05 07:56:33;;;;;;;12.37;10.60;;;6.50;49.00;;;;;;10413141;28;20295;-66
2022/12/05 08:01:37;;;;;;;14.80;11.93;;;6.50;49.30;;;;;;10416386;28;21204;-66
2022/12/05 08:06:40;;;;;;;15.70;12.43;;;6.60;49.10;;;;;;10417047;28;20234;-66
2022/12/05 08:11:44;;;;;;;14.80;11.87;;;6.60;49.10;;;;;;10416657;28;20232;-69
2022/12/05 08:16:54;;;;;;;17.43;12.77;;;6.60;49.00;;;;;;10420878;28;20229;-69
2022/12/05 08:21:57;;;;;;;14.23;10.40;;;6.70;49.10;;;;;;10424565;28;20240;-75
2022/12/05 08:27:03;;;;;;;15.73;12.10;;;6.70;49.20;;;;;;10422161;28;20229;-69
2022/12/05 08:32:06;;;;;;;15.83;10.70;;;6.70;49.30;;;;;;10423149;28;20229;-69
2022/12/05 08:37:10;;;;;;;13.90;10.73;;;6.80;49.30;;;;;;10421652;28;20233;-69
2022/12/05 08:42:14;;;;;;;16.80;12.23;;;6.80;49.30;;;;;;10419003;28;20794;-69
2022/12/05 08:47:17;;;;;;;21.67;15.87;;;6.90;49.40;;;;;;10422130;28;20253;-69
2022/12/05 08:52:21;;;;;;;21.87;15.40;;;7.00;49.10;;;;;;10423533;28;20780;-69
2022/12/05 08:57:26;;;;;;;20.80;13.73;;;7.00;48.90;;;;;;10420669;28;20237;-69
2022/12/05 09:02:29;;;;;;;18.33;13.60;;;7.00;49.00;;;;;;10422073;28;20886;-69
2022/12/05 09:07:32;;;;;;;18.83;14.77;;;7.00;48.80;;;;;;10421057;28;20230;-69
2022/12/05 09:12:37;;;;;;;19.83;14.77;;;7.00;49.10;;;;;;10420750;28;20243;-69
2022/12/05 09:17:41;;;;;;;21.40;14.53;;;7.00;49.20;;;;;;10417769;28;20225;-69
2022/12/05 09:22:44;;;;;;;20.13;14.40;;;7.00;49.10;;;;;;10419036;28;20233;-69
2022/12/05 09:27:48;;;;;;;19.43;14.50;;;7.10;49.30;;;;;;10418577;28;20233;-69
2022/12/05 09:32:51;;;;;;;21.20;14.97;;;7.10;49.30;;;;;;10416597;28;20236;-69
2022/12/05 09:37:55;;;;;;;22.50;15.53;;;7.10;49.40;;;;;;10419786;28;20264;-69
2022/12/05 09:43:06;;;;;;;20.90;15.47;;;7.20;49.20;;;;;;10415070;28;20901;-69
2022/12/05 09:48:13;;;;;;;18.27;13.60;;;7.20;49.20;;;;;;10414857;28;20239;-69
2022/12/05 09:53:26;;;;;;;20.00;14.80;;;7.20;49.40;;;;;;10415850;28;20232;-69
2022/12/05 09:58:42;;;;;;;19.50;14.43;;;7.20;49.30;;;;;;10418641;28;20264;-69
2022/12/05 10:03:53;;;;;;;22.07;15.07;;;7.20;49.30;;;;;;10421939;28;20237;-69
2022/12/05 10:09:10;;;;;;;19.60;14.87;;;7.20;49.30;;;;;;10416216;28;20241;-69
2022/12/05 10:14:26;;;;;;;24.60;18.13;;;7.20;49.40;;;;;;10413309;28;20232;-69
2022/12/05 10:19:34;;;;;;;23.67;15.97;;;7.30;49.60;;;;;;10416165;28;20239;-69
2022/12/05 10:24:43;;;;;;;18.43;14.10;;;7.30;49.50;;;;;;10424810;28;20233;-69
2022/12/05 10:29:53;;;;;;;23.60;15.83;;;7.40;49.60;;;;;;10425770;28;20238;-68
2022/12/05 10:35:13;;;;;;;18.77;14.43;;;7.40;49.60;;;;;;10426167;28;20229;-68
2022/12/05 10:40:17;;;;;;;17.80;14.80;;;7.40;49.50;;;;;;10423770;28;20233;-71
2022/12/05 10:45:23;;;;;;;18.67;14.70;;;7.40;49.50;;;;;;10416998;28;20701;-70
2022/12/05 10:50:31;;;;;;;19.47;14.93;;;7.50;49.70;;;;;;10416383;28;20230;-70
2022/12/05 10:55:37;;;;;;;18.77;14.53;;;7.50;49.90;;;;;;10415864;28;20244;-70
2022/12/05 11:00:45;;;;;;;19.67;14.57;;;7.50;49.70;;;;;;10412488;28;20229;-70
2022/12/05 11:05:51;;;;;;;23.80;17.27;;;7.60;49.90;;;;;;10409224;28;20237;-70
2022/12/05 11:11:05;;;;;;;21.43;16.77;;;7.60;49.90;;;;;;10412045;28;20287;-70
2022/12/05 11:16:24;;;;;;;18.23;14.03;;;7.60;49.90;;;;;;10417229;28;20244;-70
2022/12/05 11:21:27;;;;;;;18.53;15.10;;;7.70;50.00;;;;;;10421038;28;20241;-69
2022/12/05 11:26:34;;;;;;;19.90;16.10;;;7.70;50.00;;;;;;10424730;28;20233;-69
2022/12/05 11:31:39;;;;;;;21.80;16.47;;;7.80;50.10;;;;;;10421628;28;20229;-69
2022/12/05 11:36:48;;;;;;;20.73;16.70;;;7.80;50.00;;;;;;10419682;28;20237;-69
2022/12/05 11:42:05;;;;;;;18.57;15.27;;;7.80;49.80;;;;;;10422363;28;20897;-69
2022/12/05 11:47:21;;;;;;;19.37;16.10;;;7.90;50.20;;;;;;10417609;28;20237;-69
2022/12/05 11:52:34;;;;;;;18.80;15.10;;;7.80;50.70;;;;;;10414688;28;20723;-69
2022/12/05 11:58:02;;;;;;;18.90;15.33;;;7.90;50.70;;;;;;10412447;28;20300;-66
2022/12/05 12:03:32;;;;;;;19.00;15.07;;;8.00;50.90;;;;;;10419520;28;20315;-66
2022/12/05 12:08:44;;;;;;;19.67;15.93;;;8.00;51.00;;;;;;10418973;28;20279;-68
2022/12/05 12:14:01;;;;;;;18.20;15.90;;;8.10;50.80;;;;;;10419274;28;20217;-67
2022/12/05 12:19:22;;;;;;;19.63;15.17;;;8.20;50.60;;;;;;10415813;28;20809;-67
2022/12/05 12:24:35;;;;;;;16.33;14.57;;;8.20;50.60;;;;;;10425529;28;20249;-67
2022/12/05 12:29:54;;;;;;;20.90;16.33;;;8.20;50.40;;;;;;10424382;28;20307;-67
2022/12/05 12:35:15;;;;;;;17.90;15.73;;;8.30;50.50;;;;;;10419332;28;20728;-67
2022/12/05 12:40:22;;;;;;;23.20;18.77;;;8.30;50.50;;;;;;10415757;28;20237;-67
2022/12/05 12:45:40;;;;;;;20.73;17.43;;;8.30;50.50;;;;;;10416084;28;20276;-67
2022/12/05 12:50:50;;;;;;;19.80;16.30;;;8.30;50.50;;;;;;10416343;28;20291;-67
2022/12/05 12:56:00;;;;;;;17.80;15.90;;;8.40;50.30;;;;;;10417294;28;20712;-67
2022/12/05 13:01:11;;;;;;;15.27;13.30;;;8.40;50.30;;;;;;10416429;28;20760;-67
2022/12/05 13:06:24;;;;;;;27.87;23.93;;;8.40;50.40;;;;;;10422705;28;20229;-67
2022/12/05 13:11:34;;;;;;;18.23;15.77;;;8.40;50.50;;;;;;10419507;28;20291;-67
2022/12/05 13:16:41;;;;;;;15.93;13.90;;;8.40;50.50;;;;;;10421291;28;20240;-67
2022/12/05 13:21:49;;;;;;;15.53;13.57;;;8.40;50.40;;;;;;10417768;28;20595;-67
2022/12/05 13:26:53;;;;;;;14.07;12.53;;;8.50;50.60;;;;;;10421065;28;20229;-67
2022/12/05 13:31:56;;;;;;;13.97;12.47;;;8.50;50.40;;;;;;10423252;28;20229;-67
2022/12/05 13:42:35;;;;;;;15.23;13.30;;;8.60;50.40;;;;;;10420629;28;20233;-67
2022/12/05 13:47:49;;;;;;;14.27;12.77;;;8.60;50.20;;;;;;10422070;28;20221;-67
2022/12/05 13:52:59;;;;;;;13.53;11.93;;;8.70;50.50;;;;;;10416424;28;20244;-67
2022/12/05 13:58:03;;;;;;;14.40;12.97;;;8.70;50.40;;;;;;10424913;28;20233;-68
2022/12/05 14:03:18;;;;;;;14.50;13.00;;;8.70;50.30;;;;;;10419348;28;20719;-67
2022/12/05 14:08:53;;;;;;;14.83;13.33;;;8.70;50.40;;;;;;10416473;28;20240;-67
2022/12/05 14:13:56;;;;;;;14.40;12.90;;;8.70;50.40;;;;;;10418432;28;20226;-67
2022/12/05 14:19:13;;;;;;;15.17;12.90;;;8.80;50.20;;;;;;10417398;28;20233;-67
2022/12/05 14:24:24;;;;;;;12.70;11.40;;;8.80;50.30;;;;;;10420631;28;20241;-67
2022/12/05 14:29:44;;;;;;;14.60;13.10;;;8.80;50.30;;;;;;10419360;28;20232;-67
2022/12/05 14:34:57;;;;;;;15.17;13.47;;;8.80;50.10;;;;;;10414341;28;20235;-67
2022/12/05 14:40:03;;;;;;;15.93;13.87;;;8.80;50.10;;;;;;10418234;28;20229;-67
2022/12/05 14:45:26;;;;;;;14.57;12.77;;;8.80;50.10;;;;;;10414288;28;20576;-67
2022/12/05 14:50:42;;;;;;;14.43;12.93;;;8.90;50.20;;;;;;10417929;28;20258;-67
2022/12/05 14:55:49;;;;;;;13.73;12.33;;;8.90;50.20;;;;;;10419911;28;20224;-67
2022/12/05 15:00:56;;;;;;;16.17;14.53;;;8.90;50.00;;;;;;10415843;28;20233;-67
2022/12/05 15:06:03;;;;;;;23.13;19.53;;;8.80;49.90;;;;;;10424962;28;20248;-67
2022/12/05 15:11:11;;;;;;;23.03;20.53;;;8.80;50.00;;;;;;10427263;28;20233;-67
2022/12/05 15:16:19;;;;;;;18.30;16.33;;;8.80;50.80;;;;;;10429031;28;20234;-67
2022/12/05 15:21:27;;;;;;;15.93;14.23;;;8.80;50.10;;;;;;10426679;28;20237;-67
2022/12/05 15:26:37;;;;;;;12.10;10.83;;;8.80;50.10;;;;;;10425102;28;20230;-67
2022/12/05 15:31:52;;;;;;;16.03;14.07;;;8.80;50.30;;;;;;10425832;28;20322;-67
2022/12/05 15:37:00;;;;;;;17.97;15.10;;;8.80;50.00;;;;;;10421675;28;20234;-67
2022/12/05 15:42:14;;;;;;;17.50;15.23;;;8.80;50.00;;;;;;10418730;28;20275;-67
2022/12/05 15:47:22;;;;;;;14.70;13.13;;;8.70;50.20;;;;;;10423104;28;21680;-67
2022/12/05 15:52:30;;;;;;;13.40;12.10;;;8.70;50.40;;;;;;10421930;28;20284;-67
2022/12/05 15:57:41;;;;;;;13.93;12.53;;;8.70;50.40;;;;;;10427129;28;20630;-67
2022/12/05 16:02:47;;;;;;;14.13;12.53;;;8.80;50.40;;;;;;10421149;28;20240;-66
2022/12/05 16:07:52;;;;;;;15.33;12.90;;;8.80;50.20;;;;;;10422346;28;20831;-67
2022/12/05 16:13:03;;;;;;;13.00;11.70;;;8.80;49.90;;;;;;10418923;28;20237;-67
2022/12/05 16:18:07;;;;;;;13.00;11.70;;;8.80;50.10;;;;;;10420202;28;20234;-66
2022/12/05 16:23:25;;;;;;;11.60;10.40;;;8.80;49.80;;;;;;10420410;28;20229;-66
2022/12/05 16:28:34;;;;;;;11.90;10.70;;;8.80;50.40;;;;;;10421809;28;20244;-67
2022/12/05 16:33:37;;;;;;;12.07;10.87;;;8.80;50.20;;;;;;10425376;28;20710;-67
2022/12/05 16:38:45;;;;;;;10.93;9.93;;;8.80;50.00;;;;;;10420171;28;20237;-68
2022/12/05 16:43:52;;;;;;;12.20;10.83;;;8.80;49.80;;;;;;10414859;28;20233;-68
2022/12/05 16:49:16;;;;;;;12.90;11.60;;;8.80;50.00;;;;;;10417054;28;20237;-68
2022/12/05 16:54:19;;;;;;;13.60;12.30;;;8.80;50.00;;;;;;10419779;28;20625;-68
2022/12/05 16:59:26;;;;;;;14.40;12.10;;;8.80;50.00;;;;;;10419632;28;20292;-68
2022/12/05 17:04:30;;;;;;;12.43;11.23;;;8.80;50.00;;;;;;10419698;28;20240;-68
2022/12/05 17:09:33;;;;;;;12.40;11.20;;;8.80;49.90;;;;;;10412858;28;20243;-68
2022/12/05 17:14:38;;;;;;;10.70;9.70;;;8.80;50.00;;;;;;10414263;28;20232;-68
2022/12/05 17:19:41;;;;;;;11.77;10.57;;;8.80;50.00;;;;;;10412887;28;20741;-68
2022/12/05 17:24:44;;;;;;;17.53;15.77;;;8.70;49.90;;;;;;10412653;28;20221;-68
2022/12/05 17:29:48;;;;;;;13.23;11.93;;;8.70;50.00;;;;;;10416579;28;20939;-68
2022/12/05 17:34:52;;;;;;;13.40;12.00;;;8.70;50.10;;;;;;10418914;28;20229;-68
2022/12/05 17:39:55;;;;;;;10.57;9.57;;;8.70;50.00;;;;;;10414324;28;20240;-68
2022/12/05 17:44:59;;;;;;;10.13;8.97;;;8.80;49.90;;;;;;10419107;28;20233;-68
2022/12/05 17:50:04;;;;;;;12.70;10.77;;;8.80;49.90;;;;;;10417312;28;20221;-69
2022/12/05 17:55:15;;;;;;;10.03;9.03;;;8.80;50.40;;;;;;10421687;28;20232;-69
2022/12/05 18:00:24;;;;;;;8.43;7.67;;;8.70;49.70;;;;;;10416586;28;20579;-68
2022/12/05 18:05:27;;;;;;;9.23;8.37;;;8.70;49.80;;;;;;10417253;28;20279;-68
2022/12/05 18:10:30;;;;;;;14.10;12.77;;;8.70;50.00;;;;;;10420336;28;20302;-68
2022/12/05 18:15:34;;;;;;;18.23;16.53;;;8.70;50.10;;;;;;10415066;28;20226;-69
2022/12/05 18:20:45;;;;;;;13.83;12.50;;;8.80;50.30;;;;;;10415517;28;20232;-68
2022/12/05 18:25:58;;;;;;;11.73;10.53;;;8.80;50.20;;;;;;10414097;28;20271;-68
2022/12/05 18:31:10;;;;;;;12.27;11.07;;;8.80;50.10;;;;;;10413067;28;20914;-69
2022/12/05 18:36:16;;;;;;;13.83;12.47;;;8.90;50.20;;;;;;10416906;28;20230;-69
2022/12/05 18:41:22;;;;;;;12.97;11.83;;;9.00;50.10;;;;;;10416418;28;20241;-69
2022/12/05 18:46:26;;;;;;;13.20;12.00;;;9.00;49.90;;;;;;10426852;28;20233;-69
2022/12/05 18:51:29;;;;;;;12.73;11.60;;;9.00;49.70;;;;;;10427418;28;20324;-69
2022/12/05 18:56:34;;;;;;;14.63;13.23;;;9.00;49.70;;;;;;10427047;28;20233;-69
2022/12/05 19:01:40;;;;;;;13.97;12.43;;;9.00;49.50;;;;;;10421809;28;20610;-69
2022/12/05 19:06:48;;;;;;;13.10;11.90;;;9.00;49.50;;;;;;10424142;28;20225;-69
2022/12/05 19:11:55;;;;;;;12.00;10.90;;;9.00;49.50;;;;;;10420071;28;20237;-69
2022/12/05 19:17:00;;;;;;;10.50;9.43;;;9.00;49.50;;;;;;10423897;28;20348;-69
2022/12/05 19:22:03;;;;;;;10.63;9.53;;;9.00;49.40;;;;;;10427773;28;20257;-69
2022/12/05 19:27:06;;;;;;;11.33;10.33;;;9.00;49.50;;;;;;10424462;28;20229;-69
2022/12/05 19:32:11;;;;;;;11.20;10.10;;;9.00;49.50;;;;;;10423983;28;20236;-69
2022/12/05 19:37:14;;;;;;;16.20;12.77;;;9.00;49.40;;;;;;10424576;28;20236;-69
2022/12/05 19:42:17;;;;;;;11.30;10.20;;;9.00;49.10;;;;;;10420656;28;20249;-69
2022/12/05 19:47:22;;;;;;;11.47;10.27;;;9.00;49.20;;;;;;10415042;28;20440;-68
2022/12/05 19:52:25;;;;;;;11.67;10.67;;;9.00;49.20;;;;;;10404400;28;20238;-68
2022/12/05 19:57:28;;;;;;;12.83;9.87;;;9.00;49.30;;;;;;10403249;28;20228;-68
2022/12/05 20:02:34;;;;;;;9.87;8.97;;;8.90;49.20;;;;;;10405161;28;21147;-68
2022/12/05 20:07:42;;;;;;;10.80;9.90;;;8.90;49.10;;;;;;10405982;28;20697;-68
2022/12/05 20:12:45;;;;;;;12.67;11.37;;;8.90;49.30;;;;;;10403483;28;20242;-69
2022/12/05 20:17:50;;;;;;;14.70;12.30;;;8.90;49.40;;;;;;10405874;28;20926;-69
2022/12/05 20:22:55;;;;;;;12.80;11.60;;;8.90;49.30;;;;;;10403768;28;20249;-69
2022/12/05 20:27:58;;;;;;;13.97;12.60;;;8.90;49.40;;;;;;10404811;28;20693;-70
2022/12/05 20:33:03;;;;;;;13.90;12.70;;;8.90;49.40;;;;;;10404970;28;20819;-67
2022/12/05 20:38:06;;;;;;;13.07;11.67;;;8.90;49.30;;;;;;10401141;28;20225;-67
2022/12/05 20:43:09;;;;;;;13.47;12.27;;;8.90;49.30;;;;;;10404386;28;20236;-70
2022/12/05 20:48:14;;;;;;;13.73;12.33;;;8.80;49.30;;;;;;10406152;28;20233;-70
2022/12/05 20:53:17;;;;;;;12.90;11.50;;;8.80;49.30;;;;;;10401813;28;20240;-67
2022/12/05 20:58:20;;;;;;;12.00;10.90;;;8.80;49.20;;;;;;10405656;28;20233;-69
2022/12/05 21:03:25;;;;;;;11.10;10.10;;;8.80;49.30;;;;;;10404907;28;20259;-67
2022/12/05 21:08:28;;;;;;;11.27;10.27;;;8.80;49.30;;;;;;10396390;28;20229;-67
2022/12/05 21:13:32;;;;;;;12.33;11.20;;;8.80;49.30;;;;;;10401513;28;20236;-67
2022/12/05 21:18:37;;;;;;;11.30;10.20;;;8.90;49.30;;;;;;10401840;28;20622;-67
2022/12/05 21:23:40;;;;;;;9.27;8.47;;;8.90;49.00;;;;;;10399239;28;20229;-70
2022/12/05 21:28:45;;;;;;;10.57;9.67;;;8.90;49.10;;;;;;10400590;28;20644;-67
2022/12/05 21:33:52;;;;;;;8.70;8.00;;;8.90;49.00;;;;;;10406380;28;20301;-67
2022/12/05 21:38:55;;;;;;;10.03;9.07;;;8.80;49.00;;;;;;10403615;28;20344;-69
2022/12/05 21:43:59;;;;;;;15.87;11.83;;;8.80;49.00;;;;;;10396074;28;20225;-70
2022/12/05 21:49:04;;;;;;;19.47;12.93;;;8.90;48.90;;;;;;10402599;28;20708;-70
2022/12/05 21:54:07;;;;;;;16.60;12.53;;;8.80;48.60;;;;;;10407683;28;20232;-69
2022/12/05 21:59:11;;;;;;;20.90;15.10;;;8.80;48.80;;;;;;10408483;28;20229;-70
2022/12/05 22:04:15;;;;;;;9.63;8.53;;;8.70;48.50;;;;;;10407942;28;20225;-70
2022/12/05 22:09:18;;;;;;;8.07;7.37;;;8.70;48.40;;;;;;10410647;28;20229;-69
2022/12/05 22:14:21;;;;;;;7.40;6.80;;;8.60;48.30;;;;;;10412364;28;20244;-69
2022/12/05 22:19:26;;;;;;;7.40;6.77;;;8.50;48.40;;;;;;10414536;28;20270;-70
2022/12/05 22:24:29;;;;;;;7.17;6.57;;;8.40;48.60;;;;;;10420176;28;20233;-69
2022/12/05 22:29:32;;;;;;;7.53;6.90;;;8.40;48.70;;;;;;10412348;28;20276;-70
2022/12/05 22:34:37;;;;;;;7.10;6.50;;;8.40;48.80;;;;;;10414034;28;20229;-69
2022/12/05 22:39:40;;;;;;;7.07;6.47;;;8.30;48.90;;;;;;10412960;28;20228;-67
2022/12/05 22:44:43;;;;;;;8.17;7.47;;;8.40;48.90;;;;;;10414445;28;21229;-67
2022/12/05 22:49:48;;;;;;;8.67;7.23;;;8.30;48.80;;;;;;10412276;28;20286;-67
2022/12/05 22:54:51;;;;;;;8.57;7.87;;;8.30;48.70;;;;;;10413318;28;20800;-67
2022/12/05 22:59:54;;;;;;;8.97;8.17;;;8.30;48.80;;;;;;10416538;28;20245;-67
2022/12/05 23:04:58;;;;;;;9.13;8.30;;;8.30;48.80;;;;;;10414537;28;20229;-67
2022/12/05 23:10:02;;;;;;;9.50;8.70;;;8.30;48.80;;;;;;10410092;28;20257;-71
2022/12/05 23:15:05;;;;;;;9.10;8.20;;;8.30;48.90;;;;;;10404752;28;20227;-68
2022/12/05 23:20:10;;;;;;;8.63;7.87;;;8.30;48.80;;;;;;10417110;28;20241;-68
2022/12/05 23:25:15;;;;;;;8.27;7.47;;;8.20;48.60;;;;;;10415258;28;20320;-68
2022/12/05 23:30:18;;;;;;;8.30;7.60;;;8.20;48.70;;;;;;10423057;28;20718;-68
2022/12/05 23:35:23;;;;;;;7.97;7.33;;;8.20;48.80;;;;;;10423641;28;20240;-68
2022/12/05 23:40:26;;;;;;;7.97;7.27;;;8.10;48.70;;;;;;10421824;28;20255;-67
2022/12/05 23:45:29;;;;;;;7.27;6.57;;;8.10;48.60;;;;;;10422662;28;20225;-68
2022/12/05 23:50:34;;;;;;;8.87;8.07;;;8.10;48.80;;;;;;10434530;22;20585;-76
2022/12/05 23:55:37;;;;;;;8.07;7.43;;;8.10;48.90;;;;;;10418618;28;20240;-76
